Darstellungsparameter: Aktuell verwendete Einstellungen:
Skalierung der Graphiken ... ?
xyx+y,   Skalierungsfaktor:      Skalierung: Modus: x, Faktor: 1
Darstellungszeitraum ... ?
Vom - - bis: - -   Zeitraum: 14.07.2020 - 16.07.2020
Min/Max/Avg-Anzeige ... ?
Zeige MMA aktuell
Zeige MMA Monat
Zeige MMA alles
Zeige --A aktuell
Zeige --A Monat
Zeige --A alles
Keine MMA-Anzeige
MMA:
Average (ber die Originaldaten)
MMA-Basis: 14.07.2020 - 16.07.2020
Quicknavigation für Darstellung... ?
Tage:      1T, 2T, 3T, 5T -1T -2T -3T -5T +1T +2T +3T +5T
Wochen: 1W, 2W, 3W -1W -2W -3W +1W +2W +3W
Monate: 1M, 3M, 6M -1M -3M -6M +1M +3M +6M
Jahre:    1J, 3J, 5J, 10J -1J -3J -5J -10J +1J +3J +5J +10J
Nutze für die Darstellung ... ?
Originaldaten oder Mittelwerte auf ...
Stundenbasis Tagesbasis Wochenbasis
Monatsbasis Jahresbasis      Datenbasis: Original-Daten
Darstellen als:
Statistik (Auto) Statistik J:M      Darstellung:
Zur Graphik,    zurück zur Übersicht aller Sensoren.
 
Tabellarische Datenbersicht: ?
 
Sensor: Nr:Datum:Temp:Abs-Feuchte:Windchill:Wind:
Aussen-T/F 1 14-07-2020 00:00:00 17.9 C 9.47 g/m*3 17.9 C 4.8 km/h
2 14-07-2020 00:05:00 17.8 C 9.56 g/m*3 17.8 C 0 km/h
3 14-07-2020 00:10:00 17.8 C 9.56 g/m*3 17.8 C 3.2 km/h
4 14-07-2020 00:15:00 17.7 C 9.51 g/m*3 17.7 C 4.8 km/h
5 14-07-2020 00:20:00 17.7 C 9.51 g/m*3 17.7 C 3.2 km/h
6 14-07-2020 00:25:00 17.6 C 9.45 g/m*3 17.6 C 4.8 km/h
7 14-07-2020 00:30:00 17.6 C 9.45 g/m*3 17.6 C 3.2 km/h
8 14-07-2020 00:35:00 17.5 C 9.39 g/m*3 17.5 C 4.8 km/h
9 14-07-2020 00:40:00 17.4 C 9.48 g/m*3 17.4 C 3.2 km/h
10 14-07-2020 00:45:00 17.4 C 9.48 g/m*3 17.4 C 0 km/h
11 14-07-2020 00:50:00 17.3 C 9.43 g/m*3 17.3 C 0 km/h
12 14-07-2020 00:55:00 17.2 C 9.37 g/m*3 17.2 C 0 km/h
13 14-07-2020 01:00:00 17.2 C 9.37 g/m*3 17.2 C 4.8 km/h
14 14-07-2020 01:05:00 17.1 C 9.46 g/m*3 17.1 C 3.2 km/h
15 14-07-2020 01:10:00 17 C 9.55 g/m*3 17 C 3.2 km/h
16 14-07-2020 01:15:00 16.9 C 9.49 g/m*3 16.9 C 3.2 km/h
17 14-07-2020 01:20:00 16.7 C 9.52 g/m*3 16.7 C 0 km/h
18 14-07-2020 01:25:00 16.6 C 9.46 g/m*3 16.6 C 1.6 km/h
19 14-07-2020 01:30:00 16.5 C 9.55 g/m*3 16.5 C 0 km/h
20 14-07-2020 01:35:00 16.3 C 9.57 g/m*3 16.3 C 0 km/h
21 14-07-2020 01:40:00 16.2 C 9.52 g/m*3 16.2 C 0 km/h
22 14-07-2020 01:45:00 16.1 C 9.6 g/m*3 16.1 C 4.8 km/h
23 14-07-2020 01:50:00 15.9 C 9.62 g/m*3 15.9 C 1.6 km/h
24 14-07-2020 01:55:00 15.8 C 9.56 g/m*3 15.8 C 0 km/h
25 14-07-2020 02:00:00 15.7 C 9.63 g/m*3 15.7 C 0 km/h
Sensor: Nr:Datum:Temp:Abs-Feuchte:Windchill:Wind:
Aussen-T/F 26 14-07-2020 02:05:00 15.6 C 9.58 g/m*3 15.6 C 0 km/h
27 14-07-2020 02:10:00 15.4 C 9.59 g/m*3 15.4 C 0 km/h
28 14-07-2020 02:15:00 15.4 C 9.59 g/m*3 15.4 C 0 km/h
29 14-07-2020 02:20:00 15.3 C 9.66 g/m*3 15.3 C 0 km/h
30 14-07-2020 02:25:00 15.2 C 9.61 g/m*3 15.2 C 0 km/h
31 14-07-2020 02:30:00 15.1 C 9.68 g/m*3 15.1 C 0 km/h
32 14-07-2020 02:35:00 14.9 C 9.56 g/m*3 14.9 C 0 km/h
33 14-07-2020 02:40:00 14.8 C 9.5 g/m*3 14.8 C 0 km/h
34 14-07-2020 02:45:00 14.6 C 9.51 g/m*3 14.6 C 0 km/h
35 14-07-2020 02:50:00 14.5 C 9.45 g/m*3 14.5 C 0 km/h
36 14-07-2020 02:55:00 14.4 C 9.39 g/m*3 14.4 C 0 km/h
37 14-07-2020 03:00:00 14.3 C 9.46 g/m*3 14.3 C 0 km/h
38 14-07-2020 03:05:00 14.2 C 9.52 g/m*3 14.2 C 0 km/h
39 14-07-2020 03:10:00 14 C 9.41 g/m*3 14 C 0 km/h
40 14-07-2020 03:15:00 13.9 C 9.35 g/m*3 13.9 C 0 km/h
41 14-07-2020 03:20:00 13.8 C 9.41 g/m*3 13.8 C 0 km/h
42 14-07-2020 03:25:00 13.7 C 9.35 g/m*3 13.7 C 0 km/h
43 14-07-2020 03:30:00 13.7 C 9.35 g/m*3 13.7 C 0 km/h
44 14-07-2020 03:35:00 13.6 C 9.42 g/m*3 13.6 C 0 km/h
45 14-07-2020 03:40:00 13.6 C 9.42 g/m*3 13.6 C 0 km/h
46 14-07-2020 03:45:00 13.5 C 9.36 g/m*3 13.5 C 0 km/h
47 14-07-2020 03:50:00 13.4 C 9.3 g/m*3 13.4 C 0 km/h
48 14-07-2020 03:55:00 13.3 C 9.36 g/m*3 13.3 C 0 km/h
49 14-07-2020 04:00:00 13.2 C 9.3 g/m*3 13.2 C 0 km/h
50 14-07-2020 04:05:00 13.2 C 9.3 g/m*3 13.2 C 0 km/h
Sensor: Nr:Datum:Temp:Abs-Feuchte:Windchill:Wind:
Aussen-T/F 51 14-07-2020 04:10:00 13.1 C 9.36 g/m*3 13.1 C 0 km/h
52 14-07-2020 04:15:00 13.1 C 9.36 g/m*3 13.1 C 0 km/h
53 14-07-2020 04:20:00 13 C 9.3 g/m*3 13 C 0 km/h
54 14-07-2020 04:25:00 12.9 C 9.24 g/m*3 12.9 C 0 km/h
55 14-07-2020 04:30:00 12.9 C 9.24 g/m*3 12.9 C 0 km/h
56 14-07-2020 04:35:00 12.9 C 9.35 g/m*3 12.9 C 0 km/h
57 14-07-2020 04:40:00 12.8 C 9.3 g/m*3 12.8 C 0 km/h
58 14-07-2020 04:45:00 12.8 C 9.3 g/m*3 12.8 C 0 km/h
59 14-07-2020 04:50:00 12.7 C 9.24 g/m*3 12.7 C 0 km/h
60 14-07-2020 04:55:00 12.7 C 9.24 g/m*3 12.7 C 0 km/h
61 14-07-2020 05:00:00 12.6 C 9.18 g/m*3 12.6 C 0 km/h
62 14-07-2020 05:05:00 12.6 C 9.29 g/m*3 12.6 C 0 km/h
63 14-07-2020 05:10:00 12.5 C 9.24 g/m*3 12.5 C 0 km/h
64 14-07-2020 05:15:00 12.5 C 9.24 g/m*3 12.5 C 0 km/h
65 14-07-2020 05:20:00 12.4 C 9.18 g/m*3 12.4 C 0 km/h
66 14-07-2020 05:25:00 12.4 C 9.18 g/m*3 12.4 C 0 km/h
67 14-07-2020 05:30:00 12.3 C 9.23 g/m*3 12.3 C 0 km/h
68 14-07-2020 05:35:00 12.3 C 9.23 g/m*3 12.3 C 0 km/h
69 14-07-2020 05:40:00 12.3 C 9.23 g/m*3 12.3 C 0 km/h
70 14-07-2020 05:45:00 12.3 C 9.23 g/m*3 12.3 C 0 km/h
71 14-07-2020 05:50:00 12.3 C 9.23 g/m*3 12.3 C 0 km/h
72 14-07-2020 05:55:00 12.3 C 9.23 g/m*3 12.3 C 0 km/h
73 14-07-2020 06:00:00 12.3 C 9.23 g/m*3 12.3 C 0 km/h
74 14-07-2020 06:05:00 12.3 C 9.23 g/m*3 12.3 C 0 km/h
75 14-07-2020 06:10:00 12.3 C 9.23 g/m*3 12.3 C 0 km/h
Sensor: Nr:Datum:Temp:Abs-Feuchte:Windchill:Wind:
Aussen-T/F 76 14-07-2020 06:15:00 12.3 C 9.23 g/m*3 12.3 C 0 km/h
77 14-07-2020 06:20:00 12.2 C 9.17 g/m*3 12.2 C 0 km/h
78 14-07-2020 06:25:00 12.3 C 9.34 g/m*3 12.3 C 0 km/h
79 14-07-2020 06:30:00 12.3 C 9.34 g/m*3 12.3 C 0 km/h
80 14-07-2020 06:35:00 12.4 C 9.4 g/m*3 12.4 C 0 km/h
81 14-07-2020 06:40:00 12.4 C 9.4 g/m*3 12.4 C 0 km/h
82 14-07-2020 06:45:00 12.5 C 9.46 g/m*3 12.5 C 0 km/h
83 14-07-2020 06:50:00 12.6 C 9.51 g/m*3 12.6 C 0 km/h
84 14-07-2020 06:55:00 12.7 C 9.57 g/m*3 12.7 C 0 km/h
85 14-07-2020 07:00:00 12.8 C 9.63 g/m*3 12.8 C 0 km/h
86 14-07-2020 07:05:00 12.9 C 9.69 g/m*3 12.9 C 0 km/h
87 14-07-2020 07:10:00 13.1 C 9.81 g/m*3 13.1 C 0 km/h
88 14-07-2020 07:15:00 13.3 C 9.82 g/m*3 13.3 C 0 km/h
89 14-07-2020 07:20:00 13.4 C 9.76 g/m*3 13.4 C 0 km/h
90 14-07-2020 07:25:00 13.7 C 9.83 g/m*3 13.7 C 0 km/h
91 14-07-2020 07:30:00 13.9 C 10.07 g/m*3 13.9 C 0 km/h
92 14-07-2020 07:35:00 14.1 C 10.19 g/m*3 14.1 C 0 km/h
93 14-07-2020 07:40:00 14.3 C 10.2 g/m*3 14.3 C 0 km/h
94 14-07-2020 07:45:00 14.4 C 10.14 g/m*3 14.4 C 0 km/h
95 14-07-2020 07:50:00 14.6 C 10.14 g/m*3 14.6 C 0 km/h
96 14-07-2020 07:55:00 14.7 C 10.07 g/m*3 14.7 C 0 km/h
97 14-07-2020 08:00:00 14.8 C 10.13 g/m*3 14.8 C 0 km/h
98 14-07-2020 08:05:00 14.8 C 10.13 g/m*3 14.8 C 0 km/h
99 14-07-2020 08:10:00 14.8 C 10.13 g/m*3 14.8 C 0 km/h
100 14-07-2020 08:15:00 14.8 C 10.13 g/m*3 14.8 C 0 km/h
Sensor: Nr:Datum:Temp:Abs-Feuchte:Windchill:Wind:
Aussen-T/F 101 14-07-2020 08:20:00 14.9 C 10.2 g/m*3 14.9 C 0 km/h
102 14-07-2020 08:25:00 14.9 C 10.2 g/m*3 14.9 C 0 km/h
103 14-07-2020 08:30:00 15 C 10.39 g/m*3 15 C 0 km/h
104 14-07-2020 08:35:00 15 C 10.39 g/m*3 15 C 0 km/h
105 14-07-2020 08:40:00 15.1 C 10.58 g/m*3 15.1 C 0 km/h
106 14-07-2020 08:45:00 15.1 C 10.58 g/m*3 15.1 C 0 km/h
107 14-07-2020 08:50:00 15.1 C 10.58 g/m*3 15.1 C 0 km/h
108 14-07-2020 08:55:00 15.1 C 10.58 g/m*3 15.1 C 0 km/h
109 14-07-2020 09:00:00 15.2 C 10.64 g/m*3 15.2 C 0 km/h
110 14-07-2020 09:05:00 15.2 C 10.64 g/m*3 15.2 C 0 km/h
111 14-07-2020 09:10:00 15.3 C 10.71 g/m*3 15.3 C 0 km/h
112 14-07-2020 09:15:00 15.4 C 10.77 g/m*3 15.4 C 0 km/h
113 14-07-2020 09:20:00 15.6 C 10.91 g/m*3 15.6 C 0 km/h
114 14-07-2020 09:25:00 15.7 C 10.84 g/m*3 15.7 C 0 km/h
115 14-07-2020 09:30:00 15.9 C 10.83 g/m*3 15.9 C 0 km/h
116 14-07-2020 09:35:00 16.1 C 10.97 g/m*3 16.1 C 0 km/h
117 14-07-2020 09:40:00 16.3 C 10.96 g/m*3 16.3 C 0 km/h
118 14-07-2020 09:45:00 16.4 C 10.89 g/m*3 16.4 C 0 km/h
119 14-07-2020 09:50:00 16.6 C 10.88 g/m*3 16.6 C 0 km/h
120 14-07-2020 09:55:00 16.8 C 10.87 g/m*3 16.8 C 0 km/h
121 14-07-2020 10:00:00 17.1 C 10.77 g/m*3 17.1 C 0 km/h
122 14-07-2020 10:05:00 17.4 C 10.82 g/m*3 17.4 C 0 km/h
123 14-07-2020 10:10:00 17.7 C 10.71 g/m*3 17.7 C 0 km/h
124 14-07-2020 10:15:00 18 C 10.91 g/m*3 18 C 0 km/h
125 14-07-2020 10:20:00 18.3 C 11.1 g/m*3 18.3 C 0 km/h
Sensor: Nr:Datum:Temp:Abs-Feuchte:Windchill:Wind:
Aussen-T/F 126 14-07-2020 10:25:00 18.7 C 10.89 g/m*3 18.7 C 0 km/h
127 14-07-2020 10:30:00 19.2 C 11.05 g/m*3 19.2 C 0 km/h
128 14-07-2020 10:35:00 19.8 C 10.76 g/m*3 19.8 C 0 km/h
129 14-07-2020 10:40:00 20.3 C 10.73 g/m*3 20.3 C 0 km/h
130 14-07-2020 10:45:00 20.7 C 10.98 g/m*3 20.7 C 0 km/h
131 14-07-2020 10:50:00 21.2 C 11.3 g/m*3 21.2 C 0 km/h
132 14-07-2020 10:55:00 21.4 C 10.87 g/m*3 21.4 C 0 km/h
133 14-07-2020 11:00:00 21.6 C 10.62 g/m*3 21.6 C 0 km/h
134 14-07-2020 11:05:00 21.7 C 10.87 g/m*3 21.7 C 0 km/h
135 14-07-2020 11:10:00 21.9 C 10.81 g/m*3 21.9 C 0 km/h
136 14-07-2020 11:15:00 22 C 10.67 g/m*3 22 C 0 km/h
137 14-07-2020 11:20:00 22.2 C 10.8 g/m*3 22.2 C 0 km/h
138 14-07-2020 11:25:00 22.3 C 10.47 g/m*3 22.3 C 0 km/h
139 14-07-2020 11:30:00 22.4 C 10.33 g/m*3 22.4 C 0 km/h
140 14-07-2020 11:35:00 22.6 C 10.65 g/m*3 22.6 C 0 km/h
141 14-07-2020 11:40:00 22.8 C 10.16 g/m*3 22.8 C 6.4 km/h
142 14-07-2020 11:45:00 22.9 C 10.01 g/m*3 22.9 C 4.8 km/h
143 14-07-2020 11:50:00 23.1 C 9.92 g/m*3 23.1 C 4.8 km/h
144 14-07-2020 11:55:00 23.2 C 10.19 g/m*3 23.2 C 8.1 km/h
145 14-07-2020 12:00:00 23.4 C 10.09 g/m*3 23.4 C 8.1 km/h
146 14-07-2020 12:05:00 23.5 C 9.94 g/m*3 23.5 C 9.7 km/h
147 14-07-2020 12:10:00 23.5 C 9.94 g/m*3 23.5 C 8.1 km/h
148 14-07-2020 12:15:00 23.6 C 10 g/m*3 23.6 C 8.1 km/h
149 14-07-2020 12:20:00 23.6 C 9.78 g/m*3 23.6 C 1.6 km/h
150 14-07-2020 12:25:00 23.6 C 10 g/m*3 23.6 C 6.4 km/h
Sensor: Nr:Datum:Temp:Abs-Feuchte:Windchill:Wind:
Aussen-T/F 151 14-07-2020 12:30:00 23.8 C 10.11 g/m*3 23.8 C 6.4 km/h
152 14-07-2020 12:35:00 23.9 C 9.95 g/m*3 23.9 C 4.8 km/h
153 14-07-2020 12:40:00 24.1 C 10.06 g/m*3 24.1 C 6.4 km/h
154 14-07-2020 12:45:00 24.2 C 9.9 g/m*3 24.2 C 11.3 km/h
155 14-07-2020 12:50:00 24.4 C 9.57 g/m*3 24.4 C 9.7 km/h
156 14-07-2020 12:55:00 24.6 C 9.9 g/m*3 24.6 C 4.8 km/h
157 14-07-2020 13:00:00 24.9 C 8.93 g/m*3 24.9 C 9.7 km/h
158 14-07-2020 13:05:00 25.2 C 9.08 g/m*3 25.2 C 11.3 km/h
159 14-07-2020 13:10:00 25.5 C 9.47 g/m*3 25.5 C 9.7 km/h
160 14-07-2020 13:15:00 25.6 C 9.05 g/m*3 25.6 C 14.5 km/h
161 14-07-2020 13:20:00 25.7 C 9.58 g/m*3 25.7 C 6.4 km/h
162 14-07-2020 13:25:00 25.8 C 9.63 g/m*3 25.8 C 6.4 km/h
163 14-07-2020 13:30:00 25.9 C 9.2 g/m*3 25.9 C 9.7 km/h
164 14-07-2020 13:35:00 25.9 C 9.44 g/m*3 25.9 C 6.4 km/h
165 14-07-2020 13:40:00 25.9 C 9.2 g/m*3 25.9 C 9.7 km/h
166 14-07-2020 13:45:00 25.9 C 9.44 g/m*3 25.9 C 8.1 km/h
167 14-07-2020 13:50:00 25.8 C 9.15 g/m*3 25.8 C 9.7 km/h
168 14-07-2020 13:55:00 25.8 C 9.39 g/m*3 25.8 C 11.3 km/h
169 14-07-2020 14:00:00 25.8 C 9.63 g/m*3 25.8 C 9.7 km/h
170 14-07-2020 14:05:00 25.9 C 9.93 g/m*3 25.9 C 9.7 km/h
171 14-07-2020 14:10:00 25.8 C 9.39 g/m*3 25.8 C 11.3 km/h
172 14-07-2020 14:15:00 25.7 C 9.34 g/m*3 25.7 C 6.4 km/h
173 14-07-2020 14:20:00 25.7 C 9.34 g/m*3 25.7 C 12.9 km/h
174 14-07-2020 14:25:00 25.7 C 9.34 g/m*3 25.7 C 8.1 km/h
175 14-07-2020 14:30:00 25.7 C 9.1 g/m*3 25.7 C 6.4 km/h
Sensor: Nr:Datum:Temp:Abs-Feuchte:Windchill:Wind:
Aussen-T/F 176 14-07-2020 14:35:00 25.7 C 9.34 g/m*3 25.7 C 6.4 km/h
177 14-07-2020 14:40:00 25.7 C 9.34 g/m*3 25.7 C 11.3 km/h
178 14-07-2020 14:45:00 25.7 C 9.34 g/m*3 25.7 C 16.1 km/h
179 14-07-2020 14:50:00 25.7 C 9.58 g/m*3 25.7 C 9.7 km/h
180 14-07-2020 14:55:00 25.6 C 9.76 g/m*3 25.6 C 12.9 km/h
181 14-07-2020 15:00:00 25.5 C 9.71 g/m*3 25.5 C 6.4 km/h
182 14-07-2020 15:05:00 25.4 C 9.65 g/m*3 25.4 C 8.1 km/h
183 14-07-2020 15:10:00 25.3 C 9.6 g/m*3 25.3 C 8.1 km/h
184 14-07-2020 15:15:00 25.3 C 9.36 g/m*3 25.3 C 9.7 km/h
185 14-07-2020 15:20:00 25.3 C 9.36 g/m*3 25.3 C 8.1 km/h
186 14-07-2020 15:25:00 25.3 C 9.6 g/m*3 25.3 C 8.1 km/h
187 14-07-2020 15:30:00 25.3 C 9.6 g/m*3 25.3 C 6.4 km/h
188 14-07-2020 15:35:00 25.3 C 9.36 g/m*3 25.3 C 8.1 km/h
189 14-07-2020 15:40:00 25.3 C 9.6 g/m*3 25.3 C 8.1 km/h
190 14-07-2020 15:45:00 25.4 C 9.42 g/m*3 25.4 C 4.8 km/h
191 14-07-2020 15:50:00 25.4 C 9.42 g/m*3 25.4 C 4.8 km/h
192 14-07-2020 15:55:00 25.4 C 9.65 g/m*3 25.4 C 9.7 km/h
193 14-07-2020 16:00:00 25.5 C 9.47 g/m*3 25.5 C 6.4 km/h
194 14-07-2020 16:05:00 25.6 C 9.52 g/m*3 25.6 C 6.4 km/h
195 14-07-2020 16:10:00 25.7 C 10.06 g/m*3 25.7 C 6.4 km/h
196 14-07-2020 16:15:00 25.8 C 10.11 g/m*3 25.8 C 6.4 km/h
197 14-07-2020 16:20:00 25.8 C 9.87 g/m*3 25.8 C 6.4 km/h
198 14-07-2020 16:25:00 25.7 C 10.29 g/m*3 25.7 C 11.3 km/h
199 14-07-2020 16:30:00 25.7 C 10.29 g/m*3 25.7 C 9.7 km/h
200 14-07-2020 16:35:00 25.7 C 10.29 g/m*3 25.7 C 12.9 km/h
Sensor: Nr:Datum:Temp:Abs-Feuchte:Windchill:Wind:
Aussen-T/F 201 14-07-2020 16:40:00 25.6 C 10.24 g/m*3 25.6 C 11.3 km/h
202 14-07-2020 16:45:00 25.6 C 10.24 g/m*3 25.6 C 8.1 km/h
203 14-07-2020 16:50:00 25.6 C 10 g/m*3 25.6 C 14.5 km/h
204 14-07-2020 16:55:00 25.4 C 10.12 g/m*3 25.4 C 12.9 km/h
205 14-07-2020 17:00:00 25.4 C 10.36 g/m*3 25.4 C 12.9 km/h
206 14-07-2020 17:05:00 25.4 C 10.36 g/m*3 25.4 C 11.3 km/h
207 14-07-2020 17:10:00 25.6 C 10.71 g/m*3 25.6 C 11.3 km/h
208 14-07-2020 17:15:00 25.7 C 10.77 g/m*3 25.7 C 16.1 km/h
209 14-07-2020 17:20:00 25.7 C 11.01 g/m*3 25.7 C 16.1 km/h
210 14-07-2020 17:25:00 25.3 C 10.77 g/m*3 25.3 C 14.5 km/h
211 14-07-2020 17:30:00 24.9 C 10.53 g/m*3 24.9 C 14.5 km/h
212 14-07-2020 17:35:00 24.6 C 10.58 g/m*3 24.6 C 12.9 km/h
213 14-07-2020 17:40:00 24.3 C 10.62 g/m*3 24.3 C 20.9 km/h
214 14-07-2020 17:45:00 24.1 C 10.5 g/m*3 24.1 C 12.9 km/h
215 14-07-2020 17:50:00 23.7 C 10.69 g/m*3 23.7 C 17.7 km/h
216 14-07-2020 17:55:00 23.3 C 10.66 g/m*3 23.3 C 25.7 km/h
217 14-07-2020 18:00:00 22.9 C 10.83 g/m*3 22.9 C 17.7 km/h
218 14-07-2020 18:05:00 22.6 C 10.65 g/m*3 22.6 C 14.5 km/h
219 14-07-2020 18:10:00 22.4 C 10.53 g/m*3 22.4 C 16.1 km/h
220 14-07-2020 18:15:00 22.1 C 10.54 g/m*3 22.1 C 14.5 km/h
221 14-07-2020 18:20:00 21.8 C 10.55 g/m*3 21.8 C 16.1 km/h
222 14-07-2020 18:25:00 21.7 C 10.87 g/m*3 21.7 C 11.3 km/h
223 14-07-2020 18:30:00 21.7 C 10.68 g/m*3 21.7 C 12.9 km/h
224 14-07-2020 18:35:00 21.7 C 10.49 g/m*3 21.7 C 17.7 km/h
225 14-07-2020 18:40:00 21.5 C 10.37 g/m*3 21.5 C 12.9 km/h
Sensor: Nr:Datum:Temp:Abs-Feuchte:Windchill:Wind:
Aussen-T/F 226 14-07-2020 18:45:00 21.3 C 10.44 g/m*3 21.3 C 11.3 km/h
227 14-07-2020 18:50:00 21.1 C 10.5 g/m*3 21.1 C 14.5 km/h
228 14-07-2020 18:55:00 20.9 C 10.56 g/m*3 20.9 C 12.9 km/h
229 14-07-2020 19:00:00 20.7 C 10.62 g/m*3 20.7 C 9.7 km/h
230 14-07-2020 19:05:00 20.5 C 10.85 g/m*3 20.5 C 8.1 km/h
231 14-07-2020 19:10:00 20.3 C 10.9 g/m*3 20.3 C 9.7 km/h
232 14-07-2020 19:15:00 20.1 C 10.95 g/m*3 20.1 C 9.7 km/h
233 14-07-2020 19:20:00 20 C 11.06 g/m*3 20 C 11.3 km/h
234 14-07-2020 19:25:00 19.9 C 11 g/m*3 19.9 C 11.3 km/h
235 14-07-2020 19:30:00 19.8 C 11.1 g/m*3 19.8 C 6.4 km/h
236 14-07-2020 19:35:00 19.8 C 11.27 g/m*3 19.8 C 6.4 km/h
237 14-07-2020 19:40:00 19.7 C 11.21 g/m*3 19.7 C 8.1 km/h
238 14-07-2020 19:45:00 19.7 C 11.21 g/m*3 19.7 C 6.4 km/h
239 14-07-2020 19:50:00 19.6 C 11.31 g/m*3 19.6 C 6.4 km/h
240 14-07-2020 19:55:00 19.5 C 11.58 g/m*3 19.5 C 6.4 km/h
241 14-07-2020 20:00:00 19.3 C 11.61 g/m*3 19.3 C 11.3 km/h
242 14-07-2020 20:05:00 19.1 C 11.64 g/m*3 19.1 C 8.1 km/h
243 14-07-2020 20:10:00 18.9 C 11.66 g/m*3 18.9 C 11.3 km/h
244 14-07-2020 20:15:00 18.8 C 11.76 g/m*3 18.8 C 8.1 km/h
245 14-07-2020 20:20:00 18.7 C 11.85 g/m*3 18.7 C 4.8 km/h
246 14-07-2020 20:25:00 18.7 C 12.17 g/m*3 18.7 C 6.4 km/h
247 14-07-2020 20:30:00 18.6 C 12.1 g/m*3 18.6 C 6.4 km/h
248 14-07-2020 20:35:00 18.4 C 12.11 g/m*3 18.4 C 4.8 km/h
249 14-07-2020 20:40:00 18.3 C 12.2 g/m*3 18.3 C 6.4 km/h
250 14-07-2020 20:45:00 18.2 C 12.28 g/m*3 18.2 C 4.8 km/h
Sensor: Nr:Datum:Temp:Abs-Feuchte:Windchill:Wind:
Aussen-T/F 251 14-07-2020 20:50:00 18.1 C 12.36 g/m*3 18.1 C 4.8 km/h
252 14-07-2020 20:55:00 18 C 12.44 g/m*3 18 C 4.8 km/h
253 14-07-2020 21:00:00 17.9 C 12.52 g/m*3 17.9 C 4.8 km/h
254 14-07-2020 21:05:00 17.8 C 12.6 g/m*3 17.8 C 0 km/h
255 14-07-2020 21:10:00 17.8 C 12.6 g/m*3 17.8 C 3.2 km/h
256 14-07-2020 21:15:00 17.7 C 12.67 g/m*3 17.7 C 0 km/h
257 14-07-2020 21:20:00 17.6 C 12.6 g/m*3 17.6 C 0 km/h
258 14-07-2020 21:25:00 17.6 C 12.6 g/m*3 17.6 C 1.6 km/h
259 14-07-2020 21:30:00 17.4 C 12.6 g/m*3 17.4 C 0 km/h
260 14-07-2020 21:35:00 17.3 C 12.67 g/m*3 17.3 C 0 km/h
261 14-07-2020 21:40:00 17.2 C 12.59 g/m*3 17.2 C 0 km/h
262 14-07-2020 21:45:00 17.1 C 12.52 g/m*3 17.1 C 1.6 km/h
263 14-07-2020 21:50:00 17 C 12.59 g/m*3 17 C 1.6 km/h
264 14-07-2020 21:55:00 16.9 C 12.51 g/m*3 16.9 C 0 km/h
265 14-07-2020 22:00:00 16.8 C 12.44 g/m*3 16.8 C 0 km/h
266 14-07-2020 22:05:00 16.7 C 12.36 g/m*3 16.7 C 0 km/h
267 14-07-2020 22:10:00 16.6 C 12.43 g/m*3 16.6 C 0 km/h
268 14-07-2020 22:15:00 16.5 C 12.36 g/m*3 16.5 C 1.6 km/h
269 14-07-2020 22:20:00 16.4 C 12.28 g/m*3 16.4 C 3.2 km/h
270 14-07-2020 22:25:00 16.4 C 12.28 g/m*3 16.4 C 3.2 km/h
271 14-07-2020 22:30:00 16.3 C 12.21 g/m*3 16.3 C 3.2 km/h
272 14-07-2020 22:35:00 16.3 C 12.21 g/m*3 16.3 C 3.2 km/h
273 14-07-2020 22:40:00 16.3 C 12.35 g/m*3 16.3 C 3.2 km/h
274 14-07-2020 22:45:00 16.2 C 12.27 g/m*3 16.2 C 3.2 km/h
275 14-07-2020 22:50:00 16.2 C 12.27 g/m*3 16.2 C 0 km/h
Sensor: Nr:Datum:Temp:Abs-Feuchte:Windchill:Wind:
Aussen-T/F 276 14-07-2020 22:55:00 16.1 C 12.2 g/m*3 16.1 C 1.6 km/h
277 14-07-2020 23:00:00 16.1 C 12.2 g/m*3 16.1 C 0 km/h
278 14-07-2020 23:05:00 16 C 12.13 g/m*3 16 C 0 km/h
279 14-07-2020 23:10:00 15.9 C 12.05 g/m*3 15.9 C 1.6 km/h
280 14-07-2020 23:15:00 15.9 C 12.05 g/m*3 15.9 C 1.6 km/h
281 14-07-2020 23:20:00 15.9 C 12.05 g/m*3 15.9 C 0 km/h
282 14-07-2020 23:25:00 15.9 C 12.05 g/m*3 15.9 C 0 km/h
283 14-07-2020 23:30:00 15.8 C 11.98 g/m*3 15.8 C 3.2 km/h
284 14-07-2020 23:35:00 15.8 C 11.98 g/m*3 15.8 C 3.2 km/h
285 14-07-2020 23:40:00 15.7 C 11.91 g/m*3 15.7 C 3.2 km/h
286 14-07-2020 23:45:00 15.7 C 11.91 g/m*3 15.7 C 0 km/h
287 14-07-2020 23:50:00 15.7 C 11.91 g/m*3 15.7 C 0 km/h
288 14-07-2020 23:55:00 15.7 C 12.04 g/m*3 15.7 C 0 km/h
289 15-07-2020 00:00:00 15.7 C 11.91 g/m*3 15.7 C 0 km/h
290 15-07-2020 00:05:00 15.7 C 11.91 g/m*3 15.7 C 0 km/h
291 15-07-2020 00:10:00 15.7 C 11.91 g/m*3 15.7 C 0 km/h
292 15-07-2020 00:15:00 15.7 C 11.91 g/m*3 15.7 C 0 km/h
293 15-07-2020 00:20:00 15.7 C 11.91 g/m*3 15.7 C 0 km/h
294 15-07-2020 00:25:00 15.7 C 11.91 g/m*3 15.7 C 0 km/h
295 15-07-2020 00:30:00 15.7 C 11.91 g/m*3 15.7 C 0 km/h
296 15-07-2020 00:35:00 15.7 C 11.91 g/m*3 15.7 C 0 km/h
297 15-07-2020 00:40:00 15.7 C 11.91 g/m*3 15.7 C 0 km/h
298 15-07-2020 00:45:00 15.7 C 11.91 g/m*3 15.7 C 0 km/h
299 15-07-2020 00:50:00 15.7 C 11.91 g/m*3 15.7 C 0 km/h
300 15-07-2020 00:55:00 15.8 C 11.98 g/m*3 15.8 C 0 km/h
Sensor: Nr:Datum:Temp:Abs-Feuchte:Windchill:Wind:
Aussen-T/F 301 15-07-2020 01:00:00 15.8 C 11.85 g/m*3 15.8 C 0 km/h
302 15-07-2020 01:05:00 15.8 C 11.71 g/m*3 15.8 C 0 km/h
303 15-07-2020 01:10:00 15.8 C 11.71 g/m*3 15.8 C 0 km/h
304 15-07-2020 01:15:00 15.8 C 11.71 g/m*3 15.8 C 0 km/h
305 15-07-2020 01:20:00 15.9 C 11.78 g/m*3 15.9 C 0 km/h
306 15-07-2020 01:25:00 15.9 C 11.51 g/m*3 15.9 C 6.4 km/h
307 15-07-2020 01:30:00 16 C 11.58 g/m*3 16 C 1.6 km/h
308 15-07-2020 01:35:00 16.1 C 11.51 g/m*3 16.1 C 6.4 km/h
309 15-07-2020 01:40:00 16.1 C 11.51 g/m*3 16.1 C 3.2 km/h
310 15-07-2020 01:45:00 16.2 C 11.58 g/m*3 16.2 C 4.8 km/h
311 15-07-2020 01:50:00 16.2 C 11.58 g/m*3 16.2 C 6.4 km/h
312 15-07-2020 01:55:00 16.2 C 11.58 g/m*3 16.2 C 1.6 km/h
313 15-07-2020 02:00:00 16.1 C 11.65 g/m*3 16.1 C 4.8 km/h
314 15-07-2020 02:05:00 16.1 C 11.65 g/m*3 16.1 C 6.4 km/h
315 15-07-2020 02:10:00 16.1 C 11.65 g/m*3 16.1 C 3.2 km/h
316 15-07-2020 02:15:00 16.1 C 11.65 g/m*3 16.1 C 4.8 km/h
317 15-07-2020 02:20:00 16.1 C 11.51 g/m*3 16.1 C 4.8 km/h
318 15-07-2020 02:25:00 16.1 C 11.51 g/m*3 16.1 C 4.8 km/h
319 15-07-2020 02:30:00 16.2 C 11.58 g/m*3 16.2 C 3.2 km/h
320 15-07-2020 02:35:00 16.2 C 11.58 g/m*3 16.2 C 6.4 km/h
321 15-07-2020 02:40:00 16.2 C 11.58 g/m*3 16.2 C 3.2 km/h
322 15-07-2020 02:45:00 16.2 C 11.72 g/m*3 16.2 C 4.8 km/h
323 15-07-2020 02:50:00 16.2 C 11.72 g/m*3 16.2 C 4.8 km/h
324 15-07-2020 02:55:00 16.2 C 11.86 g/m*3 16.2 C 3.2 km/h
325 15-07-2020 03:00:00 16.1 C 11.79 g/m*3 16.1 C 3.2 km/h
Sensor: Nr:Datum:Temp:Abs-Feuchte:Windchill:Wind:
Aussen-T/F 326 15-07-2020 03:05:00 16 C 11.72 g/m*3 16 C 8.1 km/h
327 15-07-2020 03:10:00 15.9 C 11.78 g/m*3 15.9 C 3.2 km/h
328 15-07-2020 03:15:00 15.9 C 11.78 g/m*3 15.9 C 8.1 km/h
329 15-07-2020 03:20:00 15.8 C 11.71 g/m*3 15.8 C 6.4 km/h
330 15-07-2020 03:25:00 15.8 C 11.71 g/m*3 15.8 C 6.4 km/h
331 15-07-2020 03:30:00 15.8 C 11.71 g/m*3 15.8 C 4.8 km/h
332 15-07-2020 03:35:00 15.8 C 11.71 g/m*3 15.8 C 8.1 km/h
333 15-07-2020 03:40:00 15.8 C 11.85 g/m*3 15.8 C 3.2 km/h
334 15-07-2020 03:45:00 15.8 C 11.85 g/m*3 15.8 C 3.2 km/h
335 15-07-2020 03:50:00 15.8 C 11.85 g/m*3 15.8 C 0 km/h
336 15-07-2020 03:55:00 15.8 C 11.98 g/m*3 15.8 C 0 km/h
337 15-07-2020 04:00:00 15.8 C 11.98 g/m*3 15.8 C 0 km/h
338 15-07-2020 04:05:00 15.7 C 12.04 g/m*3 15.7 C 3.2 km/h
339 15-07-2020 04:10:00 15.7 C 12.04 g/m*3 15.7 C 0 km/h
340 15-07-2020 04:15:00 15.6 C 11.97 g/m*3 15.6 C 0 km/h
341 15-07-2020 04:20:00 15.6 C 12.1 g/m*3 15.6 C 0 km/h
342 15-07-2020 04:25:00 15.5 C 12.03 g/m*3 15.5 C 1.6 km/h
343 15-07-2020 04:30:00 15.4 C 11.96 g/m*3 15.4 C 0 km/h
344 15-07-2020 04:35:00 15.4 C 12.09 g/m*3 15.4 C 0 km/h
345 15-07-2020 04:40:00 15.3 C 12.01 g/m*3 15.3 C 0 km/h
346 15-07-2020 04:45:00 15.3 C 12.01 g/m*3 15.3 C 1.6 km/h
347 15-07-2020 04:50:00 15.2 C 11.94 g/m*3 15.2 C 0 km/h
348 15-07-2020 04:55:00 15.2 C 12.07 g/m*3 15.2 C 0 km/h
349 15-07-2020 05:00:00 15.2 C 12.07 g/m*3 15.2 C 1.6 km/h
350 15-07-2020 05:05:00 15.2 C 12.07 g/m*3 15.2 C 1.6 km/h
Sensor: Nr:Datum:Temp:Abs-Feuchte:Windchill:Wind:
Aussen-T/F 351 15-07-2020 05:10:00 15.1 C 12 g/m*3 15.1 C 1.6 km/h
352 15-07-2020 05:15:00 15.1 C 12 g/m*3 15.1 C 1.6 km/h
353 15-07-2020 05:20:00 15.1 C 12.13 g/m*3 15.1 C 3.2 km/h
354 15-07-2020 05:25:00 15.1 C 12.13 g/m*3 15.1 C 1.6 km/h
355 15-07-2020 05:30:00 15.1 C 12.13 g/m*3 15.1 C 3.2 km/h
356 15-07-2020 05:35:00 15.1 C 12.13 g/m*3 15.1 C 1.6 km/h
357 15-07-2020 05:40:00 15.1 C 12.13 g/m*3 15.1 C 0 km/h
358 15-07-2020 05:45:00 15.1 C 12.13 g/m*3 15.1 C 0 km/h
359 15-07-2020 05:50:00 15.1 C 12.13 g/m*3 15.1 C 0 km/h
360 15-07-2020 05:55:00 15.1 C 12.13 g/m*3 15.1 C 0 km/h
361 15-07-2020 06:00:00 15.1 C 12.13 g/m*3 15.1 C 3.2 km/h
362 15-07-2020 06:05:00 15 C 12.05 g/m*3 15 C 0 km/h
363 15-07-2020 06:10:00 15 C 12.05 g/m*3 15 C 0 km/h
364 15-07-2020 06:15:00 15 C 12.05 g/m*3 15 C 1.6 km/h
365 15-07-2020 06:20:00 14.9 C 11.98 g/m*3 14.9 C 3.2 km/h
366 15-07-2020 06:25:00 14.8 C 11.91 g/m*3 14.8 C 3.2 km/h
367 15-07-2020 06:30:00 14.8 C 11.91 g/m*3 14.8 C 1.6 km/h
368 15-07-2020 06:35:00 14.8 C 11.91 g/m*3 14.8 C 3.2 km/h
369 15-07-2020 06:40:00 14.7 C 11.83 g/m*3 14.7 C 1.6 km/h
370 15-07-2020 06:45:00 14.7 C 11.83 g/m*3 14.7 C 4.8 km/h
371 15-07-2020 06:50:00 14.6 C 11.76 g/m*3 14.6 C 8.1 km/h
372 15-07-2020 06:55:00 14.6 C 11.76 g/m*3 14.6 C 4.8 km/h
373 15-07-2020 07:00:00 14.6 C 11.89 g/m*3 14.6 C 3.2 km/h
374 15-07-2020 07:05:00 14.5 C 11.69 g/m*3 14.5 C 3.2 km/h
375 15-07-2020 07:10:00 14.6 C 11.89 g/m*3 14.6 C 0 km/h
Sensor: Nr:Datum:Temp:Abs-Feuchte:Windchill:Wind:
Aussen-T/F 376 15-07-2020 07:15:00 14.6 C 11.89 g/m*3 14.6 C 0 km/h
377 15-07-2020 07:20:00 14.7 C 11.96 g/m*3 14.7 C 1.6 km/h
378 15-07-2020 07:25:00 14.6 C 11.89 g/m*3 14.6 C 0 km/h
379 15-07-2020 07:30:00 14.6 C 11.89 g/m*3 14.6 C 1.6 km/h
380 15-07-2020 07:35:00 14.6 C 11.89 g/m*3 14.6 C 0 km/h
381 15-07-2020 07:40:00 14.6 C 11.89 g/m*3 14.6 C 0 km/h
382 15-07-2020 07:45:00 14.6 C 11.89 g/m*3 14.6 C 1.6 km/h
383 15-07-2020 07:50:00 14.6 C 11.89 g/m*3 14.6 C 0 km/h
384 15-07-2020 07:55:00 14.6 C 11.89 g/m*3 14.6 C 1.6 km/h
385 15-07-2020 08:00:00 14.7 C 11.96 g/m*3 14.7 C 0 km/h
386 15-07-2020 08:05:00 14.8 C 12.03 g/m*3 14.8 C 4.8 km/h
387 15-07-2020 08:10:00 14.8 C 12.03 g/m*3 14.8 C 0 km/h
388 15-07-2020 08:15:00 14.8 C 12.03 g/m*3 14.8 C 6.4 km/h
389 15-07-2020 08:20:00 14.8 C 11.91 g/m*3 14.8 C 8.1 km/h
390 15-07-2020 08:25:00 14.9 C 11.98 g/m*3 14.9 C 4.8 km/h
391 15-07-2020 08:30:00 14.9 C 11.98 g/m*3 14.9 C 3.2 km/h
392 15-07-2020 08:35:00 14.8 C 11.78 g/m*3 14.8 C 6.4 km/h
393 15-07-2020 08:40:00 14.8 C 11.78 g/m*3 14.8 C 4.8 km/h
394 15-07-2020 08:45:00 14.8 C 11.65 g/m*3 14.8 C 8.1 km/h
395 15-07-2020 08:50:00 14.8 C 11.65 g/m*3 14.8 C 9.7 km/h
396 15-07-2020 08:55:00 14.8 C 11.4 g/m*3 14.8 C 9.7 km/h
397 15-07-2020 09:00:00 14.9 C 11.47 g/m*3 14.9 C 9.7 km/h
398 15-07-2020 09:05:00 15.2 C 11.81 g/m*3 15.2 C 4.8 km/h
399 15-07-2020 09:10:00 15.3 C 11.62 g/m*3 15.3 C 11.3 km/h
400 15-07-2020 09:15:00 15.3 C 11.49 g/m*3 15.3 C 12.9 km/h
Sensor: Nr:Datum:Temp:Abs-Feuchte:Windchill:Wind:
Aussen-T/F 401 15-07-2020 09:20:00 15.3 C 11.36 g/m*3 15.3 C 8.1 km/h
402 15-07-2020 09:25:00 15.4 C 11.43 g/m*3 15.4 C 1.6 km/h
403 15-07-2020 09:30:00 15.6 C 11.3 g/m*3 15.6 C 11.3 km/h
404 15-07-2020 09:35:00 15.7 C 11.24 g/m*3 15.7 C 11.3 km/h
405 15-07-2020 09:40:00 15.8 C 11.17 g/m*3 15.8 C 12.9 km/h
406 15-07-2020 09:45:00 15.8 C 11.31 g/m*3 15.8 C 8.1 km/h
407 15-07-2020 09:50:00 15.8 C 10.77 g/m*3 15.8 C 11.3 km/h
408 15-07-2020 09:55:00 15.8 C 11.04 g/m*3 15.8 C 12.9 km/h
409 15-07-2020 10:00:00 15.8 C 11.04 g/m*3 15.8 C 6.4 km/h
410 15-07-2020 10:05:00 15.8 C 10.9 g/m*3 15.8 C 14.5 km/h
411 15-07-2020 10:10:00 15.9 C 10.7 g/m*3 15.9 C 14.5 km/h
412 15-07-2020 10:15:00 15.9 C 10.43 g/m*3 15.9 C 8.1 km/h
413 15-07-2020 10:20:00 15.9 C 10.43 g/m*3 15.9 C 12.9 km/h
414 15-07-2020 10:25:00 15.9 C 10.43 g/m*3 15.9 C 9.7 km/h
415 15-07-2020 10:30:00 16.2 C 10.89 g/m*3 16.2 C 8.1 km/h
416 15-07-2020 10:35:00 16.4 C 10.47 g/m*3 16.4 C 14.5 km/h
417 15-07-2020 10:40:00 16.8 C 10.44 g/m*3 16.8 C 14.5 km/h
418 15-07-2020 10:45:00 16.9 C 10.21 g/m*3 16.9 C 9.7 km/h
419 15-07-2020 10:50:00 17 C 9.98 g/m*3 17 C 12.9 km/h
420 15-07-2020 10:55:00 17.2 C 10.25 g/m*3 17.2 C 11.3 km/h
421 15-07-2020 11:00:00 17.3 C 10.02 g/m*3 17.3 C 11.3 km/h
422 15-07-2020 11:05:00 17.4 C 10.08 g/m*3 17.4 C 17.7 km/h
423 15-07-2020 11:10:00 17.5 C 10.14 g/m*3 17.5 C 17.7 km/h
424 15-07-2020 11:15:00 17.7 C 10.11 g/m*3 17.7 C 9.7 km/h
425 15-07-2020 11:20:00 17.7 C 9.96 g/m*3 17.7 C 12.9 km/h
Sensor: Nr:Datum:Temp:Abs-Feuchte:Windchill:Wind:
Aussen-T/F 426 15-07-2020 11:25:00 17.7 C 9.81 g/m*3 17.7 C 11.3 km/h
427 15-07-2020 11:30:00 17.8 C 10.02 g/m*3 17.8 C 11.3 km/h
428 15-07-2020 11:35:00 17.9 C 9.92 g/m*3 17.9 C 11.3 km/h
429 15-07-2020 11:40:00 18.1 C 9.89 g/m*3 18.1 C 11.3 km/h
430 15-07-2020 11:45:00 18.1 C 9.89 g/m*3 18.1 C 11.3 km/h
431 15-07-2020 11:50:00 18.2 C 9.79 g/m*3 18.2 C 9.7 km/h
432 15-07-2020 11:55:00 18.2 C 9.64 g/m*3 18.2 C 11.3 km/h
433 15-07-2020 12:00:00 18.1 C 9.43 g/m*3 18.1 C 9.7 km/h
434 15-07-2020 12:05:00 18.2 C 9.79 g/m*3 18.2 C 9.7 km/h
435 15-07-2020 12:10:00 18.4 C 9.28 g/m*3 18.4 C 12.9 km/h
436 15-07-2020 12:15:00 18.3 C 9.54 g/m*3 18.3 C 6.4 km/h
437 15-07-2020 12:20:00 18.3 C 9.54 g/m*3 18.3 C 17.7 km/h
438 15-07-2020 12:25:00 18.3 C 9.54 g/m*3 18.3 C 16.1 km/h
439 15-07-2020 12:30:00 18.3 C 9.38 g/m*3 18.3 C 19.3 km/h
440 15-07-2020 12:35:00 18.5 C 9.65 g/m*3 18.5 C 12.9 km/h
441 15-07-2020 12:40:00 18.6 C 9.39 g/m*3 18.6 C 12.9 km/h
442 15-07-2020 12:45:00 18.6 C 9.55 g/m*3 18.6 C 14.5 km/h
443 15-07-2020 12:50:00 18.6 C 9.23 g/m*3 18.6 C 20.9 km/h
444 15-07-2020 12:55:00 18.6 C 9.55 g/m*3 18.6 C 11.3 km/h
445 15-07-2020 13:00:00 18.7 C 9.61 g/m*3 18.7 C 9.7 km/h
446 15-07-2020 13:05:00 18.9 C 9.72 g/m*3 18.9 C 11.3 km/h
447 15-07-2020 13:10:00 19.2 C 9.56 g/m*3 19.2 C 9.7 km/h
448 15-07-2020 13:15:00 19.1 C 9.51 g/m*3 19.1 C 16.1 km/h
449 15-07-2020 13:20:00 19 C 9.61 g/m*3 19 C 19.3 km/h
450 15-07-2020 13:25:00 19 C 9.45 g/m*3 19 C 16.1 km/h
Sensor: Nr:Datum:Temp:Abs-Feuchte:Windchill:Wind:
Aussen-T/F 451 15-07-2020 13:30:00 19 C 9.61 g/m*3 19 C 12.9 km/h
452 15-07-2020 13:35:00 19.1 C 9.34 g/m*3 19.1 C 9.7 km/h
453 15-07-2020 13:40:00 19.3 C 9.95 g/m*3 19.3 C 11.3 km/h
454 15-07-2020 13:45:00 19.7 C 9.51 g/m*3 19.7 C 16.1 km/h
455 15-07-2020 13:50:00 19.7 C 9.51 g/m*3 19.7 C 8.1 km/h
456 15-07-2020 13:55:00 19.7 C 9.68 g/m*3 19.7 C 14.5 km/h
457 15-07-2020 14:00:00 19.9 C 9.62 g/m*3 19.9 C 14.5 km/h
458 15-07-2020 14:05:00 19.9 C 9.62 g/m*3 19.9 C 12.9 km/h
459 15-07-2020 14:10:00 19.9 C 9.62 g/m*3 19.9 C 8.1 km/h
460 15-07-2020 14:15:00 19.9 C 9.62 g/m*3 19.9 C 16.1 km/h
461 15-07-2020 14:20:00 19.9 C 9.62 g/m*3 19.9 C 12.9 km/h
462 15-07-2020 14:25:00 19.8 C 9.39 g/m*3 19.8 C 12.9 km/h
463 15-07-2020 14:30:00 19.8 C 9.74 g/m*3 19.8 C 11.3 km/h
464 15-07-2020 14:35:00 20 C 9.68 g/m*3 20 C 17.7 km/h
465 15-07-2020 14:40:00 20.2 C 9.27 g/m*3 20.2 C 16.1 km/h
466 15-07-2020 14:45:00 20.4 C 9.38 g/m*3 20.4 C 12.9 km/h
467 15-07-2020 14:50:00 20.4 C 9.38 g/m*3 20.4 C 12.9 km/h
468 15-07-2020 14:55:00 20.5 C 9.61 g/m*3 20.5 C 16.1 km/h
469 15-07-2020 15:00:00 20.4 C 9.38 g/m*3 20.4 C 17.7 km/h
470 15-07-2020 15:05:00 20.6 C 9.66 g/m*3 20.6 C 17.7 km/h
471 15-07-2020 15:10:00 20.9 C 9.47 g/m*3 20.9 C 14.5 km/h
472 15-07-2020 15:15:00 20.9 C 9.47 g/m*3 20.9 C 12.9 km/h
473 15-07-2020 15:20:00 20.7 C 9.54 g/m*3 20.7 C 9.7 km/h
474 15-07-2020 15:25:00 20.8 C 9.42 g/m*3 20.8 C 20.9 km/h
475 15-07-2020 15:30:00 21.2 C 10.01 g/m*3 21.2 C 17.7 km/h
Sensor: Nr:Datum:Temp:Abs-Feuchte:Windchill:Wind:
Aussen-T/F 476 15-07-2020 15:35:00 21.3 C 9.51 g/m*3 21.3 C 8.1 km/h
477 15-07-2020 15:40:00 21.3 C 9.51 g/m*3 21.3 C 14.5 km/h
478 15-07-2020 15:45:00 21 C 9.71 g/m*3 21 C 14.5 km/h
479 15-07-2020 15:50:00 21 C 9.71 g/m*3 21 C 9.7 km/h
480 15-07-2020 15:55:00 21.2 C 9.82 g/m*3 21.2 C 12.9 km/h
481 15-07-2020 16:00:00 21.7 C 9.73 g/m*3 21.7 C 11.3 km/h
482 15-07-2020 16:05:00 22 C 9.7 g/m*3 22 C 17.7 km/h
483 15-07-2020 16:10:00 21.8 C 9.59 g/m*3 21.8 C 14.5 km/h
484 15-07-2020 16:15:00 21.6 C 10.05 g/m*3 21.6 C 11.3 km/h
485 15-07-2020 16:20:00 21.4 C 9.56 g/m*3 21.4 C 14.5 km/h
486 15-07-2020 16:25:00 21.4 C 9.94 g/m*3 21.4 C 16.1 km/h
487 15-07-2020 16:30:00 21.5 C 9.62 g/m*3 21.5 C 19.3 km/h
488 15-07-2020 16:35:00 21.4 C 9.75 g/m*3 21.4 C 16.1 km/h
489 15-07-2020 16:40:00 21.4 C 9.75 g/m*3 21.4 C 9.7 km/h
490 15-07-2020 16:45:00 21.6 C 10.05 g/m*3 21.6 C 14.5 km/h
491 15-07-2020 16:50:00 21.6 C 9.86 g/m*3 21.6 C 16.1 km/h
492 15-07-2020 16:55:00 21.7 C 9.73 g/m*3 21.7 C 11.3 km/h
493 15-07-2020 17:00:00 21.6 C 9.86 g/m*3 21.6 C 16.1 km/h
494 15-07-2020 17:05:00 21.3 C 9.69 g/m*3 21.3 C 12.9 km/h
495 15-07-2020 17:10:00 21.1 C 9.58 g/m*3 21.1 C 11.3 km/h
496 15-07-2020 17:15:00 21.3 C 9.88 g/m*3 21.3 C 11.3 km/h
497 15-07-2020 17:20:00 21.6 C 9.86 g/m*3 21.6 C 14.5 km/h
498 15-07-2020 17:25:00 21.7 C 9.54 g/m*3 21.7 C 14.5 km/h
499 15-07-2020 17:30:00 21.4 C 9.56 g/m*3 21.4 C 8.1 km/h
500 15-07-2020 17:35:00 21.3 C 9.69 g/m*3 21.3 C 11.3 km/h
Sensor: Nr:Datum:Temp:Abs-Feuchte:Windchill:Wind:
Aussen-T/F 501 15-07-2020 17:40:00 21.2 C 9.64 g/m*3 21.2 C 11.3 km/h
502 15-07-2020 17:45:00 21.1 C 9.58 g/m*3 21.1 C 11.3 km/h
503 15-07-2020 17:50:00 20.9 C 9.29 g/m*3 20.9 C 14.5 km/h
504 15-07-2020 17:55:00 20.9 C 9.65 g/m*3 20.9 C 12.9 km/h
505 15-07-2020 18:00:00 21 C 9.34 g/m*3 21 C 12.9 km/h
506 15-07-2020 18:05:00 21.1 C 9.58 g/m*3 21.1 C 9.7 km/h
507 15-07-2020 18:10:00 20.9 C 9.29 g/m*3 20.9 C 12.9 km/h
508 15-07-2020 18:15:00 20.7 C 9.36 g/m*3 20.7 C 8.1 km/h
509 15-07-2020 18:20:00 20.6 C 9.49 g/m*3 20.6 C 8.1 km/h
510 15-07-2020 18:25:00 20.6 C 9.49 g/m*3 20.6 C 11.3 km/h
511 15-07-2020 18:30:00 20.4 C 9.38 g/m*3 20.4 C 9.7 km/h
512 15-07-2020 18:35:00 20.4 C 9.38 g/m*3 20.4 C 11.3 km/h
513 15-07-2020 18:40:00 20.4 C 9.38 g/m*3 20.4 C 8.1 km/h
514 15-07-2020 18:45:00 20.4 C 9.2 g/m*3 20.4 C 11.3 km/h
515 15-07-2020 18:50:00 20.4 C 9.38 g/m*3 20.4 C 8.1 km/h
516 15-07-2020 18:55:00 20.3 C 9.15 g/m*3 20.3 C 8.1 km/h
517 15-07-2020 19:00:00 20.4 C 9.38 g/m*3 20.4 C 11.3 km/h
518 15-07-2020 19:05:00 20.4 C 9.2 g/m*3 20.4 C 12.9 km/h
519 15-07-2020 19:10:00 20.3 C 9.32 g/m*3 20.3 C 8.1 km/h
520 15-07-2020 19:15:00 20.3 C 9.15 g/m*3 20.3 C 11.3 km/h
521 15-07-2020 19:20:00 20.3 C 9.15 g/m*3 20.3 C 9.7 km/h
522 15-07-2020 19:25:00 20.3 C 9.15 g/m*3 20.3 C 8.1 km/h
523 15-07-2020 19:30:00 20.3 C 9.32 g/m*3 20.3 C 8.1 km/h
524 15-07-2020 19:35:00 20.2 C 9.27 g/m*3 20.2 C 8.1 km/h
525 15-07-2020 19:40:00 20.2 C 9.27 g/m*3 20.2 C 8.1 km/h
Sensor: Nr:Datum:Temp:Abs-Feuchte:Windchill:Wind:
Aussen-T/F 526 15-07-2020 19:45:00 20.1 C 9.21 g/m*3 20.1 C 8.1 km/h
527 15-07-2020 19:50:00 20 C 9.33 g/m*3 20 C 8.1 km/h
528 15-07-2020 19:55:00 19.9 C 9.11 g/m*3 19.9 C 6.4 km/h
529 15-07-2020 20:00:00 19.9 C 9.11 g/m*3 19.9 C 6.4 km/h
530 15-07-2020 20:05:00 19.9 C 9.11 g/m*3 19.9 C 8.1 km/h
531 15-07-2020 20:10:00 19.9 C 9.11 g/m*3 19.9 C 3.2 km/h
532 15-07-2020 20:15:00 19.9 C 9.11 g/m*3 19.9 C 4.8 km/h
533 15-07-2020 20:20:00 19.8 C 9.22 g/m*3 19.8 C 4.8 km/h
534 15-07-2020 20:25:00 19.8 C 9.22 g/m*3 19.8 C 4.8 km/h
535 15-07-2020 20:30:00 19.8 C 9.57 g/m*3 19.8 C 1.6 km/h
536 15-07-2020 20:35:00 19.8 C 9.91 g/m*3 19.8 C 4.8 km/h
537 15-07-2020 20:40:00 19.8 C 10.76 g/m*3 19.8 C 3.2 km/h
538 15-07-2020 20:45:00 19.7 C 10.87 g/m*3 19.7 C 1.6 km/h
539 15-07-2020 20:50:00 19.4 C 10.68 g/m*3 19.4 C 1.6 km/h
540 15-07-2020 20:55:00 19.2 C 10.55 g/m*3 19.2 C 1.6 km/h
541 15-07-2020 21:00:00 19 C 10.59 g/m*3 19 C 3.2 km/h
542 15-07-2020 21:05:00 18.7 C 10.57 g/m*3 18.7 C 3.2 km/h
543 15-07-2020 21:10:00 18.5 C 10.76 g/m*3 18.5 C 3.2 km/h
544 15-07-2020 21:15:00 18.3 C 10.63 g/m*3 18.3 C 3.2 km/h
545 15-07-2020 21:20:00 18.1 C 10.51 g/m*3 18.1 C 1.6 km/h
546 15-07-2020 21:25:00 17.9 C 10.38 g/m*3 17.9 C 0 km/h
547 15-07-2020 21:30:00 17.8 C 10.32 g/m*3 17.8 C 3.2 km/h
548 15-07-2020 21:35:00 17.7 C 10.41 g/m*3 17.7 C 3.2 km/h
549 15-07-2020 21:40:00 17.6 C 10.35 g/m*3 17.6 C 0 km/h
550 15-07-2020 21:45:00 17.4 C 10.37 g/m*3 17.4 C 0 km/h
Sensor: Nr:Datum:Temp:Abs-Feuchte:Windchill:Wind:
Aussen-T/F 551 15-07-2020 21:50:00 17.3 C 10.16 g/m*3 17.3 C 0 km/h
552 15-07-2020 21:55:00 17.2 C 10.25 g/m*3 17.2 C 4.8 km/h
553 15-07-2020 22:00:00 17.2 C 10.25 g/m*3 17.2 C 6.4 km/h
554 15-07-2020 22:05:00 17.1 C 10.34 g/m*3 17.1 C 6.4 km/h
555 15-07-2020 22:10:00 17 C 10.27 g/m*3 17 C 6.4 km/h
556 15-07-2020 22:15:00 16.9 C 10.07 g/m*3 16.9 C 4.8 km/h
557 15-07-2020 22:20:00 16.8 C 10.01 g/m*3 16.8 C 6.4 km/h
558 15-07-2020 22:25:00 16.8 C 10.01 g/m*3 16.8 C 6.4 km/h
559 15-07-2020 22:30:00 16.7 C 10.23 g/m*3 16.7 C 8.1 km/h
560 15-07-2020 22:35:00 16.7 C 10.09 g/m*3 16.7 C 8.1 km/h
561 15-07-2020 22:40:00 16.7 C 10.09 g/m*3 16.7 C 6.4 km/h
562 15-07-2020 22:45:00 16.6 C 10.03 g/m*3 16.6 C 8.1 km/h
563 15-07-2020 22:50:00 16.6 C 10.03 g/m*3 16.6 C 4.8 km/h
564 15-07-2020 22:55:00 16.6 C 10.17 g/m*3 16.6 C 4.8 km/h
565 15-07-2020 23:00:00 16.6 C 10.45 g/m*3 16.6 C 1.6 km/h
566 15-07-2020 23:05:00 16.6 C 10.45 g/m*3 16.6 C 3.2 km/h
567 15-07-2020 23:10:00 16.5 C 10.53 g/m*3 16.5 C 3.2 km/h
568 15-07-2020 23:15:00 16.4 C 10.33 g/m*3 16.4 C 1.6 km/h
569 15-07-2020 23:20:00 16.4 C 10.33 g/m*3 16.4 C 1.6 km/h
570 15-07-2020 23:25:00 16.3 C 10.27 g/m*3 16.3 C 4.8 km/h
571 15-07-2020 23:30:00 16.3 C 10.27 g/m*3 16.3 C 3.2 km/h
572 15-07-2020 23:35:00 16.2 C 10.2 g/m*3 16.2 C 3.2 km/h
573 15-07-2020 23:40:00 16.2 C 10.34 g/m*3 16.2 C 3.2 km/h
574 15-07-2020 23:45:00 16.1 C 10.28 g/m*3 16.1 C 4.8 km/h
575 15-07-2020 23:50:00 16.1 C 10.28 g/m*3 16.1 C 3.2 km/h
Sensor: Nr:Datum:Temp:Abs-Feuchte:Windchill:Wind:
Aussen-T/F 576 15-07-2020 23:55:00 16.1 C 10.14 g/m*3 16.1 C 1.6 km/h
577 16-07-2020 00:00:00 16 C 10.22 g/m*3 16 C 0 km/h
578 16-07-2020 00:05:00 16 C 10.35 g/m*3 16 C 0 km/h
579 16-07-2020 00:10:00 16 C 10.22 g/m*3 16 C 0 km/h
580 16-07-2020 00:15:00 15.9 C 10.29 g/m*3 15.9 C 0 km/h
581 16-07-2020 00:20:00 15.9 C 10.43 g/m*3 15.9 C 0 km/h
582 16-07-2020 00:25:00 15.9 C 10.43 g/m*3 15.9 C 0 km/h
583 16-07-2020 00:30:00 15.8 C 10.36 g/m*3 15.8 C 0 km/h
584 16-07-2020 00:35:00 15.8 C 10.5 g/m*3 15.8 C 0 km/h
585 16-07-2020 00:40:00 15.7 C 10.57 g/m*3 15.7 C 3.2 km/h
586 16-07-2020 00:45:00 15.6 C 10.37 g/m*3 15.6 C 1.6 km/h
587 16-07-2020 00:50:00 15.4 C 10.25 g/m*3 15.4 C 0 km/h
588 16-07-2020 00:55:00 15.3 C 10.32 g/m*3 15.3 C 0 km/h
589 16-07-2020 01:00:00 15.1 C 10.19 g/m*3 15.1 C 0 km/h
590 16-07-2020 01:05:00 15 C 10.26 g/m*3 15 C 0 km/h
591 16-07-2020 01:10:00 14.9 C 10.2 g/m*3 14.9 C 0 km/h
592 16-07-2020 01:15:00 14.8 C 10.13 g/m*3 14.8 C 0 km/h
593 16-07-2020 01:20:00 14.8 C 10.26 g/m*3 14.8 C 0 km/h
594 16-07-2020 01:25:00 14.8 C 10.26 g/m*3 14.8 C 0 km/h
595 16-07-2020 01:30:00 14.8 C 10.13 g/m*3 14.8 C 0 km/h
596 16-07-2020 01:35:00 14.9 C 10.32 g/m*3 14.9 C 0 km/h
597 16-07-2020 01:40:00 14.9 C 10.32 g/m*3 14.9 C 3.2 km/h
598 16-07-2020 01:45:00 15 C 10.39 g/m*3 15 C 6.4 km/h
599 16-07-2020 01:50:00 15.1 C 10.45 g/m*3 15.1 C 6.4 km/h
600 16-07-2020 01:55:00 15.1 C 10.45 g/m*3 15.1 C 4.8 km/h
Sensor: Nr:Datum:Temp:Abs-Feuchte:Windchill:Wind:
Aussen-T/F 601 16-07-2020 02:00:00 15.2 C 10.51 g/m*3 15.2 C 3.2 km/h
602 16-07-2020 02:05:00 15.2 C 10.51 g/m*3 15.2 C 0 km/h
603 16-07-2020 02:10:00 15.2 C 10.51 g/m*3 15.2 C 0 km/h
604 16-07-2020 02:15:00 15.3 C 10.71 g/m*3 15.3 C 0 km/h
605 16-07-2020 02:20:00 15.3 C 10.84 g/m*3 15.3 C 0 km/h
606 16-07-2020 02:25:00 15.3 C 10.71 g/m*3 15.3 C 0 km/h
607 16-07-2020 02:30:00 15.3 C 10.71 g/m*3 15.3 C 0 km/h
608 16-07-2020 02:35:00 15.4 C 10.77 g/m*3 15.4 C 0 km/h
609 16-07-2020 02:40:00 15.4 C 10.77 g/m*3 15.4 C 0 km/h
610 16-07-2020 02:45:00 15.4 C 10.9 g/m*3 15.4 C 0 km/h
611 16-07-2020 02:50:00 15.4 C 10.9 g/m*3 15.4 C 3.2 km/h
612 16-07-2020 02:55:00 15.4 C 11.04 g/m*3 15.4 C 0 km/h
613 16-07-2020 03:00:00 15.3 C 10.84 g/m*3 15.3 C 0 km/h
614 16-07-2020 03:05:00 15.3 C 10.84 g/m*3 15.3 C 0 km/h
615 16-07-2020 03:10:00 15.3 C 10.97 g/m*3 15.3 C 0 km/h
616 16-07-2020 03:15:00 15.2 C 10.9 g/m*3 15.2 C 0 km/h
617 16-07-2020 03:20:00 15.2 C 10.9 g/m*3 15.2 C 0 km/h
618 16-07-2020 03:25:00 15.2 C 11.03 g/m*3 15.2 C 0 km/h
619 16-07-2020 03:30:00 15.2 C 11.03 g/m*3 15.2 C 0 km/h
620 16-07-2020 03:35:00 15.2 C 11.03 g/m*3 15.2 C 0 km/h
621 16-07-2020 03:40:00 15.2 C 11.03 g/m*3 15.2 C 0 km/h
622 16-07-2020 03:45:00 15.2 C 11.16 g/m*3 15.2 C 0 km/h
623 16-07-2020 03:50:00 15.1 C 11.09 g/m*3 15.1 C 0 km/h
624 16-07-2020 03:55:00 15.1 C 10.97 g/m*3 15.1 C 0 km/h
625 16-07-2020 04:00:00 15.1 C 11.09 g/m*3 15.1 C 0 km/h
Sensor: Nr:Datum:Temp:Abs-Feuchte:Windchill:Wind:
Aussen-T/F 626 16-07-2020 04:05:00 15.1 C 11.09 g/m*3 15.1 C 1.6 km/h
627 16-07-2020 04:10:00 15.1 C 11.09 g/m*3 15.1 C 1.6 km/h
628 16-07-2020 04:15:00 15.2 C 11.16 g/m*3 15.2 C 3.2 km/h
629 16-07-2020 04:20:00 15.3 C 11.23 g/m*3 15.3 C 0 km/h
630 16-07-2020 04:25:00 15.3 C 11.36 g/m*3 15.3 C 0 km/h
631 16-07-2020 04:30:00 15.4 C 11.43 g/m*3 15.4 C 3.2 km/h
632 16-07-2020 04:35:00 15.4 C 11.56 g/m*3 15.4 C 1.6 km/h
633 16-07-2020 04:40:00 15.3 C 11.36 g/m*3 15.3 C 1.6 km/h
634 16-07-2020 04:45:00 15.3 C 11.49 g/m*3 15.3 C 1.6 km/h
635 16-07-2020 04:50:00 15.3 C 11.49 g/m*3 15.3 C 0 km/h
636 16-07-2020 04:55:00 15.3 C 11.49 g/m*3 15.3 C 0 km/h
637 16-07-2020 05:00:00 15.2 C 11.55 g/m*3 15.2 C 0 km/h
638 16-07-2020 05:05:00 15.2 C 11.55 g/m*3 15.2 C 0 km/h
639 16-07-2020 05:10:00 15.2 C 11.55 g/m*3 15.2 C 0 km/h
640 16-07-2020 05:15:00 15.1 C 11.61 g/m*3 15.1 C 1.6 km/h
641 16-07-2020 05:20:00 15.1 C 11.61 g/m*3 15.1 C 0 km/h
642 16-07-2020 05:25:00 15 C 11.54 g/m*3 15 C 0 km/h
643 16-07-2020 05:30:00 14.9 C 11.47 g/m*3 14.9 C 0 km/h
644 16-07-2020 05:35:00 14.9 C 11.6 g/m*3 14.9 C 0 km/h
645 16-07-2020 05:40:00 14.9 C 11.6 g/m*3 14.9 C 0 km/h
646 16-07-2020 05:45:00 14.8 C 11.53 g/m*3 14.8 C 0 km/h
647 16-07-2020 05:50:00 14.8 C 11.53 g/m*3 14.8 C 0 km/h
648 16-07-2020 05:55:00 14.8 C 11.53 g/m*3 14.8 C 0 km/h
649 16-07-2020 06:00:00 14.8 C 11.65 g/m*3 14.8 C 1.6 km/h
650 16-07-2020 06:05:00 14.8 C 11.65 g/m*3 14.8 C 4.8 km/h
Sensor: Nr:Datum:Temp:Abs-Feuchte:Windchill:Wind:
Aussen-T/F 651 16-07-2020 06:10:00 14.7 C 11.58 g/m*3 14.7 C 8.1 km/h
652 16-07-2020 06:15:00 14.7 C 11.58 g/m*3 14.7 C 3.2 km/h
653 16-07-2020 06:20:00 14.6 C 11.51 g/m*3 14.6 C 4.8 km/h
654 16-07-2020 06:25:00 14.5 C 11.44 g/m*3 14.5 C 4.8 km/h
655 16-07-2020 06:30:00 14.4 C 11.37 g/m*3 14.4 C 3.2 km/h
656 16-07-2020 06:35:00 14.4 C 11.37 g/m*3 14.4 C 3.2 km/h
657 16-07-2020 06:40:00 14.4 C 11.37 g/m*3 14.4 C 0 km/h
658 16-07-2020 06:45:00 14.4 C 11.37 g/m*3 14.4 C 1.6 km/h
659 16-07-2020 06:50:00 14.3 C 11.3 g/m*3 14.3 C 3.2 km/h
660 16-07-2020 06:55:00 14.3 C 11.43 g/m*3 14.3 C 3.2 km/h
661 16-07-2020 07:00:00 14.3 C 11.43 g/m*3 14.3 C 3.2 km/h
662 16-07-2020 07:05:00 14.3 C 11.43 g/m*3 14.3 C 0 km/h
663 16-07-2020 07:10:00 14.3 C 11.43 g/m*3 14.3 C 0 km/h
664 16-07-2020 07:15:00 14.3 C 11.43 g/m*3 14.3 C 0 km/h
665 16-07-2020 07:20:00 14.3 C 11.43 g/m*3 14.3 C 0 km/h
666 16-07-2020 07:25:00 14.3 C 11.43 g/m*3 14.3 C 1.6 km/h
667 16-07-2020 07:30:00 14.4 C 11.5 g/m*3 14.4 C 3.2 km/h
668 16-07-2020 07:35:00 14.4 C 11.5 g/m*3 14.4 C 0 km/h
669 16-07-2020 07:40:00 14.4 C 11.5 g/m*3 14.4 C 1.6 km/h
670 16-07-2020 07:45:00 14.5 C 11.69 g/m*3 14.5 C 1.6 km/h
671 16-07-2020 07:50:00 14.6 C 11.64 g/m*3 14.6 C 1.6 km/h
672 16-07-2020 07:55:00 14.6 C 11.64 g/m*3 14.6 C 1.6 km/h
673 16-07-2020 08:00:00 14.7 C 11.71 g/m*3 14.7 C 4.8 km/h
674 16-07-2020 08:05:00 14.8 C 11.78 g/m*3 14.8 C 6.4 km/h
675 16-07-2020 08:10:00 14.8 C 11.78 g/m*3 14.8 C 6.4 km/h
Sensor: Nr:Datum:Temp:Abs-Feuchte:Windchill:Wind:
Aussen-T/F 676 16-07-2020 08:15:00 14.9 C 11.85 g/m*3 14.9 C 8.1 km/h
677 16-07-2020 08:20:00 14.9 C 11.85 g/m*3 14.9 C 6.4 km/h
678 16-07-2020 08:25:00 15.1 C 12 g/m*3 15.1 C 6.4 km/h
679 16-07-2020 08:30:00 15.1 C 11.87 g/m*3 15.1 C 6.4 km/h
680 16-07-2020 08:35:00 15.1 C 11.87 g/m*3 15.1 C 4.8 km/h
681 16-07-2020 08:40:00 15.1 C 11.87 g/m*3 15.1 C 4.8 km/h
682 16-07-2020 08:45:00 15.1 C 11.87 g/m*3 15.1 C 0 km/h
683 16-07-2020 08:50:00 15.2 C 11.94 g/m*3 15.2 C 0 km/h
684 16-07-2020 08:55:00 15.2 C 11.94 g/m*3 15.2 C 1.6 km/h
685 16-07-2020 09:00:00 15.3 C 12.01 g/m*3 15.3 C 3.2 km/h
686 16-07-2020 09:05:00 15.3 C 12.14 g/m*3 15.3 C 3.2 km/h
687 16-07-2020 09:10:00 15.4 C 12.09 g/m*3 15.4 C 6.4 km/h
688 16-07-2020 09:15:00 15.4 C 12.09 g/m*3 15.4 C 3.2 km/h
689 16-07-2020 09:20:00 15.4 C 12.09 g/m*3 15.4 C 8.1 km/h
690 16-07-2020 09:25:00 15.4 C 12.09 g/m*3 15.4 C 4.8 km/h
691 16-07-2020 09:30:00 15.3 C 12.01 g/m*3 15.3 C 6.4 km/h
692 16-07-2020 09:35:00 15.3 C 12.01 g/m*3 15.3 C 4.8 km/h
693 16-07-2020 09:40:00 15.4 C 12.09 g/m*3 15.4 C 4.8 km/h
694 16-07-2020 09:45:00 15.4 C 12.22 g/m*3 15.4 C 3.2 km/h
695 16-07-2020 09:50:00 15.4 C 12.09 g/m*3 15.4 C 8.1 km/h
696 16-07-2020 09:55:00 15.4 C 12.09 g/m*3 15.4 C 6.4 km/h
697 16-07-2020 10:00:00 15.4 C 12.09 g/m*3 15.4 C 4.8 km/h
698 16-07-2020 10:05:00 15.4 C 11.96 g/m*3 15.4 C 4.8 km/h
699 16-07-2020 10:10:00 15.5 C 12.03 g/m*3 15.5 C 0 km/h
700 16-07-2020 10:15:00 15.7 C 12.31 g/m*3 15.7 C 1.6 km/h
Sensor: Nr:Datum:Temp:Abs-Feuchte:Windchill:Wind:
Aussen-T/F 701 16-07-2020 10:20:00 15.8 C 12.25 g/m*3 15.8 C 3.2 km/h
702 16-07-2020 10:25:00 16 C 12.4 g/m*3 16 C 1.6 km/h
703 16-07-2020 10:30:00 16.1 C 12.34 g/m*3 16.1 C 4.8 km/h
704 16-07-2020 10:35:00 16.1 C 12.2 g/m*3 16.1 C 4.8 km/h
705 16-07-2020 10:40:00 16.1 C 12.2 g/m*3 16.1 C 6.4 km/h
706 16-07-2020 10:45:00 16.1 C 12.2 g/m*3 16.1 C 3.2 km/h
707 16-07-2020 10:50:00 16.2 C 12.27 g/m*3 16.2 C 1.6 km/h
708 16-07-2020 10:55:00 16.2 C 12.14 g/m*3 16.2 C 3.2 km/h
709 16-07-2020 11:00:00 16.3 C 12.21 g/m*3 16.3 C 4.8 km/h
710 16-07-2020 11:05:00 16.3 C 12.21 g/m*3 16.3 C 3.2 km/h
711 16-07-2020 11:10:00 16.4 C 12.28 g/m*3 16.4 C 4.8 km/h
712 16-07-2020 11:15:00 16.4 C 12.28 g/m*3 16.4 C 4.8 km/h
713 16-07-2020 11:20:00 16.5 C 12.5 g/m*3 16.5 C 3.2 km/h
714 16-07-2020 11:25:00 16.6 C 12.43 g/m*3 16.6 C 3.2 km/h
715 16-07-2020 11:30:00 16.6 C 12.29 g/m*3 16.6 C 6.4 km/h
716 16-07-2020 11:35:00 16.7 C 12.51 g/m*3 16.7 C 4.8 km/h
717 16-07-2020 11:40:00 16.7 C 12.51 g/m*3 16.7 C 3.2 km/h
718 16-07-2020 11:45:00 16.5 C 12.36 g/m*3 16.5 C 1.6 km/h
719 16-07-2020 11:50:00 16.3 C 12.35 g/m*3 16.3 C 3.2 km/h
720 16-07-2020 11:55:00 16.3 C 12.62 g/m*3 16.3 C 0 km/h
721 16-07-2020 12:00:00 16.3 C 12.62 g/m*3 16.3 C 8.1 km/h
722 16-07-2020 12:05:00 16.3 C 12.76 g/m*3 16.3 C 1.6 km/h
723 16-07-2020 12:10:00 16.4 C 12.84 g/m*3 16.4 C 8.1 km/h
724 16-07-2020 12:15:00 16.4 C 12.84 g/m*3 16.4 C 6.4 km/h
725 16-07-2020 12:20:00 16.4 C 12.7 g/m*3 16.4 C 4.8 km/h
Sensor: Nr:Datum:Temp:Abs-Feuchte:Windchill:Wind:
Aussen-T/F 726 16-07-2020 12:25:00 16.6 C 13 g/m*3 16.6 C 3.2 km/h
727 16-07-2020 12:30:00 16.5 C 12.78 g/m*3 16.5 C 4.8 km/h
728 16-07-2020 12:35:00 16.6 C 12.86 g/m*3 16.6 C 3.2 km/h
729 16-07-2020 12:40:00 16.6 C 13 g/m*3 16.6 C 3.2 km/h
730 16-07-2020 12:45:00 16.6 C 12.86 g/m*3 16.6 C 1.6 km/h
731 16-07-2020 12:50:00 16.7 C 13.07 g/m*3 16.7 C 0 km/h
732 16-07-2020 12:55:00 16.8 C 13.15 g/m*3 16.8 C 4.8 km/h
733 16-07-2020 13:00:00 16.9 C 13.09 g/m*3 16.9 C 4.8 km/h
734 16-07-2020 13:05:00 16.9 C 12.94 g/m*3 16.9 C 9.7 km/h
735 16-07-2020 13:10:00 17 C 13.02 g/m*3 17 C 6.4 km/h
736 16-07-2020 13:15:00 17.1 C 12.96 g/m*3 17.1 C 6.4 km/h
737 16-07-2020 13:20:00 17.1 C 12.96 g/m*3 17.1 C 4.8 km/h
738 16-07-2020 13:25:00 17.1 C 12.96 g/m*3 17.1 C 4.8 km/h
739 16-07-2020 13:30:00 17.2 C 13.18 g/m*3 17.2 C 6.4 km/h
740 16-07-2020 13:35:00 17.1 C 12.96 g/m*3 17.1 C 8.1 km/h
741 16-07-2020 13:40:00 17.1 C 13.1 g/m*3 17.1 C 4.8 km/h
742 16-07-2020 13:45:00 17.2 C 13.03 g/m*3 17.2 C 6.4 km/h
743 16-07-2020 13:50:00 17.3 C 13.11 g/m*3 17.3 C 6.4 km/h
744 16-07-2020 13:55:00 17.4 C 12.89 g/m*3 17.4 C 8.1 km/h
745 16-07-2020 14:00:00 17.5 C 12.97 g/m*3 17.5 C 8.1 km/h
746 16-07-2020 14:05:00 17.4 C 12.89 g/m*3 17.4 C 8.1 km/h
747 16-07-2020 14:10:00 17.3 C 12.67 g/m*3 17.3 C 11.3 km/h
748 16-07-2020 14:15:00 17.2 C 12.74 g/m*3 17.2 C 8.1 km/h
749 16-07-2020 14:20:00 17.1 C 12.81 g/m*3 17.1 C 6.4 km/h
750 16-07-2020 14:25:00 16.9 C 12.8 g/m*3 16.9 C 9.7 km/h
Sensor: Nr:Datum:Temp:Abs-Feuchte:Windchill:Wind:
Aussen-T/F 751 16-07-2020 14:30:00 16.9 C 12.94 g/m*3 16.9 C 4.8 km/h
752 16-07-2020 14:35:00 16.9 C 12.94 g/m*3 16.9 C 4.8 km/h
753 16-07-2020 14:40:00 17.1 C 13.1 g/m*3 17.1 C 8.1 km/h
754 16-07-2020 14:45:00 17.2 C 13.18 g/m*3 17.2 C 8.1 km/h
755 16-07-2020 14:50:00 17.3 C 13.26 g/m*3 17.3 C 6.4 km/h
756 16-07-2020 14:55:00 17.4 C 13.04 g/m*3 17.4 C 4.8 km/h
757 16-07-2020 15:00:00 17.4 C 12.89 g/m*3 17.4 C 8.1 km/h
758 16-07-2020 15:05:00 17.6 C 13.05 g/m*3 17.6 C 4.8 km/h
759 16-07-2020 15:10:00 17.6 C 13.05 g/m*3 17.6 C 6.4 km/h
760 16-07-2020 15:15:00 17.7 C 13.13 g/m*3 17.7 C 4.8 km/h
761 16-07-2020 15:20:00 17.6 C 12.9 g/m*3 17.6 C 12.9 km/h
762 16-07-2020 15:25:00 17.4 C 13.04 g/m*3 17.4 C 8.1 km/h
763 16-07-2020 15:30:00 17.3 C 13.11 g/m*3 17.3 C 8.1 km/h
764 16-07-2020 15:35:00 17.1 C 12.96 g/m*3 17.1 C 8.1 km/h
765 16-07-2020 15:40:00 17.1 C 13.25 g/m*3 17.1 C 8.1 km/h
766 16-07-2020 15:45:00 17.2 C 13.47 g/m*3 17.2 C 8.1 km/h
767 16-07-2020 15:50:00 17.1 C 13.25 g/m*3 17.1 C 9.7 km/h
768 16-07-2020 15:55:00 17 C 13.17 g/m*3 17 C 9.7 km/h
769 16-07-2020 16:00:00 16.9 C 13.23 g/m*3 16.9 C 8.1 km/h
770 16-07-2020 16:05:00 17.1 C 13.54 g/m*3 17.1 C 6.4 km/h
771 16-07-2020 16:10:00 17.1 C 13.54 g/m*3 17.1 C 3.2 km/h
772 16-07-2020 16:15:00 17.1 C 13.39 g/m*3 17.1 C 6.4 km/h
773 16-07-2020 16:20:00 16.9 C 13.23 g/m*3 16.9 C 4.8 km/h
774 16-07-2020 16:25:00 16.9 C 13.23 g/m*3 16.9 C 3.2 km/h
775 16-07-2020 16:30:00 16.8 C 13.15 g/m*3 16.8 C 3.2 km/h
Sensor: Nr:Datum:Temp:Abs-Feuchte:Windchill:Wind:
Aussen-T/F 776 16-07-2020 16:35:00 17 C 13.31 g/m*3 17 C 3.2 km/h
777 16-07-2020 16:40:00 17.2 C 13.47 g/m*3 17.2 C 1.6 km/h
778 16-07-2020 16:45:00 17.4 C 13.78 g/m*3 17.4 C 0 km/h
779 16-07-2020 16:50:00 17.6 C 13.95 g/m*3 17.6 C 0 km/h
780 16-07-2020 16:55:00 17.7 C 13.88 g/m*3 17.7 C 1.6 km/h
781 16-07-2020 17:00:00 17.7 C 13.58 g/m*3 17.7 C 1.6 km/h
782 16-07-2020 17:05:00 17.8 C 13.51 g/m*3 17.8 C 4.8 km/h
783 16-07-2020 17:10:00 17.9 C 13.44 g/m*3 17.9 C 4.8 km/h
784 16-07-2020 17:15:00 17.9 C 13.13 g/m*3 17.9 C 3.2 km/h
785 16-07-2020 17:20:00 18 C 13.21 g/m*3 18 C 1.6 km/h
786 16-07-2020 17:25:00 18.1 C 13.13 g/m*3 18.1 C 6.4 km/h
787 16-07-2020 17:30:00 18.1 C 13.13 g/m*3 18.1 C 4.8 km/h
788 16-07-2020 17:35:00 18.1 C 13.13 g/m*3 18.1 C 4.8 km/h
789 16-07-2020 17:40:00 18 C 12.9 g/m*3 18 C 6.4 km/h
790 16-07-2020 17:45:00 17.9 C 12.98 g/m*3 17.9 C 6.4 km/h
791 16-07-2020 17:50:00 18 C 13.06 g/m*3 18 C 1.6 km/h
792 16-07-2020 17:55:00 18.1 C 13.13 g/m*3 18.1 C 1.6 km/h
793 16-07-2020 18:00:00 18.2 C 13.37 g/m*3 18.2 C 3.2 km/h
794 16-07-2020 18:05:00 18.2 C 13.21 g/m*3 18.2 C 0 km/h
795 16-07-2020 18:10:00 18.2 C 13.21 g/m*3 18.2 C 1.6 km/h
796 16-07-2020 18:15:00 18.2 C 13.21 g/m*3 18.2 C 0 km/h
797 16-07-2020 18:20:00 18.2 C 13.21 g/m*3 18.2 C 1.6 km/h
798 16-07-2020 18:25:00 18.2 C 13.37 g/m*3 18.2 C 0 km/h
799 16-07-2020 18:30:00 18.2 C 13.37 g/m*3 18.2 C 3.2 km/h
800 16-07-2020 18:35:00 18.2 C 13.68 g/m*3 18.2 C 0 km/h
Sensor: Nr:Datum:Temp:Abs-Feuchte:Windchill:Wind:
Aussen-T/F 801 16-07-2020 18:40:00 18.3 C 13.92 g/m*3 18.3 C 0 km/h
802 16-07-2020 18:45:00 18.3 C 13.92 g/m*3 18.3 C 0 km/h
803 16-07-2020 18:50:00 18.2 C 13.83 g/m*3 18.2 C 0 km/h
804 16-07-2020 18:55:00 18.1 C 13.6 g/m*3 18.1 C 1.6 km/h
805 16-07-2020 19:00:00 18.1 C 13.6 g/m*3 18.1 C 3.2 km/h
806 16-07-2020 19:05:00 18 C 13.52 g/m*3 18 C 3.2 km/h
807 16-07-2020 19:10:00 18 C 13.52 g/m*3 18 C 1.6 km/h
808 16-07-2020 19:15:00 17.9 C 13.44 g/m*3 17.9 C 1.6 km/h
809 16-07-2020 19:20:00 17.8 C 13.36 g/m*3 17.8 C 3.2 km/h
810 16-07-2020 19:25:00 17.8 C 13.36 g/m*3 17.8 C 3.2 km/h
811 16-07-2020 19:30:00 17.8 C 13.51 g/m*3 17.8 C 0 km/h
812 16-07-2020 19:35:00 17.8 C 13.66 g/m*3 17.8 C 3.2 km/h
813 16-07-2020 19:40:00 17.7 C 13.58 g/m*3 17.7 C 0 km/h
814 16-07-2020 19:45:00 17.6 C 13.35 g/m*3 17.6 C 0 km/h
815 16-07-2020 19:50:00 17.6 C 13.5 g/m*3 17.6 C 0 km/h
816 16-07-2020 19:55:00 17.6 C 13.65 g/m*3 17.6 C 1.6 km/h
817 16-07-2020 20:00:00 17.5 C 13.57 g/m*3 17.5 C 3.2 km/h
818 16-07-2020 20:05:00 17.4 C 13.49 g/m*3 17.4 C 0 km/h
819 16-07-2020 20:10:00 17.3 C 13.41 g/m*3 17.3 C 1.6 km/h
820 16-07-2020 20:15:00 17.2 C 13.47 g/m*3 17.2 C 0 km/h
821 16-07-2020 20:20:00 17.1 C 13.39 g/m*3 17.1 C 0 km/h
822 16-07-2020 20:25:00 17.1 C 13.39 g/m*3 17.1 C 0 km/h
823 16-07-2020 20:30:00 17.1 C 13.54 g/m*3 17.1 C 0 km/h
824 16-07-2020 20:35:00 17 C 13.46 g/m*3 17 C 0 km/h
825 16-07-2020 20:40:00 16.9 C 13.38 g/m*3 16.9 C 6.4 km/h
Sensor: Nr:Datum:Temp:Abs-Feuchte:Windchill:Wind:
Aussen-T/F 826 16-07-2020 20:45:00 16.7 C 13.07 g/m*3 16.7 C 6.4 km/h
827 16-07-2020 20:50:00 16.6 C 13 g/m*3 16.6 C 12.9 km/h
828 16-07-2020 20:55:00 16.4 C 12.84 g/m*3 16.4 C 4.8 km/h
829 16-07-2020 21:00:00 16.3 C 12.62 g/m*3 16.3 C 11.3 km/h
830 16-07-2020 21:05:00 16.3 C 12.62 g/m*3 16.3 C 14.5 km/h
831 16-07-2020 21:10:00 16.1 C 12.34 g/m*3 16.1 C 17.7 km/h
832 16-07-2020 21:15:00 16.1 C 12.34 g/m*3 16.1 C 9.7 km/h
833 16-07-2020 21:20:00 15.9 C 12.19 g/m*3 15.9 C 8.1 km/h
834 16-07-2020 21:25:00 15.9 C 12.32 g/m*3 15.9 C 3.2 km/h
835 16-07-2020 21:30:00 15.9 C 12.32 g/m*3 15.9 C 1.6 km/h
836 16-07-2020 21:35:00 15.8 C 12.25 g/m*3 15.8 C 0 km/h
837 16-07-2020 21:40:00 15.8 C 12.38 g/m*3 15.8 C 0 km/h
838 16-07-2020 21:45:00 15.8 C 12.38 g/m*3 15.8 C 4.8 km/h
839 16-07-2020 21:50:00 15.7 C 12.31 g/m*3 15.7 C 3.2 km/h
840 16-07-2020 21:55:00 15.6 C 12.23 g/m*3 15.6 C 3.2 km/h
841 16-07-2020 22:00:00 15.6 C 12.23 g/m*3 15.6 C 4.8 km/h
842 16-07-2020 22:05:00 15.5 C 12.16 g/m*3 15.5 C 3.2 km/h
843 16-07-2020 22:10:00 15.6 C 12.37 g/m*3 15.6 C 0 km/h
844 16-07-2020 22:15:00 15.6 C 12.37 g/m*3 15.6 C 4.8 km/h
845 16-07-2020 22:20:00 15.5 C 12.29 g/m*3 15.5 C 6.4 km/h
846 16-07-2020 22:25:00 15.5 C 12.29 g/m*3 15.5 C 4.8 km/h
847 16-07-2020 22:30:00 15.4 C 12.22 g/m*3 15.4 C 3.2 km/h
848 16-07-2020 22:35:00 15.4 C 12.35 g/m*3 15.4 C 4.8 km/h
849 16-07-2020 22:40:00 15.4 C 12.35 g/m*3 15.4 C 1.6 km/h
850 16-07-2020 22:45:00 15.4 C 12.35 g/m*3 15.4 C 3.2 km/h
Sensor: Nr:Datum:Temp:Abs-Feuchte:Windchill:Wind:
Aussen-T/F 851 16-07-2020 22:50:00 15.4 C 12.35 g/m*3 15.4 C 1.6 km/h
852 16-07-2020 22:55:00 15.4 C 12.35 g/m*3 15.4 C 3.2 km/h
853 16-07-2020 23:00:00 15.3 C 12.28 g/m*3 15.3 C 1.6 km/h
854 16-07-2020 23:05:00 15.3 C 12.28 g/m*3 15.3 C 0 km/h
855 16-07-2020 23:10:00 15.3 C 12.28 g/m*3 15.3 C 1.6 km/h
856 16-07-2020 23:15:00 15.3 C 12.28 g/m*3 15.3 C 3.2 km/h
857 16-07-2020 23:20:00 15.3 C 12.28 g/m*3 15.3 C 3.2 km/h
858 16-07-2020 23:25:00 15.3 C 12.41 g/m*3 15.3 C 0 km/h
859 16-07-2020 23:30:00 15.3 C 12.41 g/m*3 15.3 C 3.2 km/h
860 16-07-2020 23:35:00 15.3 C 12.41 g/m*3 15.3 C 1.6 km/h
861 16-07-2020 23:40:00 15.2 C 12.33 g/m*3 15.2 C 0 km/h
862 16-07-2020 23:45:00 15.2 C 12.33 g/m*3 15.2 C 0 km/h
863 16-07-2020 23:50:00 15.2 C 12.33 g/m*3 15.2 C 0 km/h
864 16-07-2020 23:55:00 15.2 C 12.33 g/m*3 15.2 C 0 km/h

Legende:
   Min
   Max


Maximal/Minimal-Werte vom 14.07.2020 - 16.07.2020

Sensor Min Max Avg
Temp
(Aussen-T/F)
12.2 °C
14-07-2020  06:20:00
25.9 °C
14-07-2020  13:30:00
17.43 °C
Abs-Feuchte
(Aussen-T/F)
8.93 g/m*3
14-07-2020  13:00:00
13.95 g/m*3
16-07-2020  16:50:00
11.04 g/m*3
Windchill
(Aussen-T/F)
12.2 C
14-07-2020  06:20:00
25.9 C
14-07-2020  13:30:00
17.41 C

Die Daten stammen von einer Davis Vantage Pro 2 Wetter-Station und werden unter Linux mit der Software wview2wettercgi und aufbereitet. Alle Angaben erfolgen ohne Gewähr für ihre Vollständigkeit oder Richtigkeit.
Kontakt: Rainer Krienke krienke@uni-koblenz.de . Meine Webseiten an der Uni Koblenz oder privat.
Version: $Revision: 0.78 $